Time,TemperatureF,DewpointF,PressureIn,WindDirection,WindDirectionDegrees,WindSpeedMPH,WindSpeedGustMPH,Humidity,HourlyPrecipIn,Conditions,Clouds,dailyrainin,SoftwareType,DateUTC
2013-01-17 00:00:00,32.5,28.8,29.80,South,180,1.6,1.6,86,0.00,OVC,,0.00,WeatherDisplay:10.37,2013-01-17 05:00:00,
2013-01-17 00:01:00,32.5,28.8,29.80,South,180,1.6,1.6,86,0.00,OVC,,0.00,WeatherDisplay:10.37,2013-01-17 05:01:00,
2013-01-17 00:03:00,32.5,28.8,29.80,South,180,1.6,1.6,86,0.00,OVC,,0.00,WeatherDisplay:10.37,2013-01-17 05:03:00,
2013-01-17 00:05:00,32.5,28.8,29.80,South,180,1.6,1.6,86,0.00,OVC,,0.00,WeatherDisplay:10.37,2013-01-17 05:05:00,
2013-01-17 00:10:00,32.5,28.8,29.80,SW,225,0.8,2.3,86,0.00,OVC,,0.00,WeatherDisplay:10.37,2013-01-17 05:10:00,
2013-01-17 00:15:00,32.7,29.0,29.80,NNW,338,0.8,1.1,86,0.00,OVC,,0.00,WeatherDisplay:10.37,2013-01-17 05:15:00,
2013-01-17 00:20:00,32.5,28.8,29.80,NNW,338,1.0,3.5,86,0.00,OVC,,0.00,WeatherDisplay:10.37,2013-01-17 05:20:00,
2013-01-17 00:25:00,32.5,28.8,29.80,SSE,158,1.1,1.1,86,0.00,OVC,,0.00,WeatherDisplay:10.37,2013-01-17 05:25:00,
2013-01-17 00:30:00,32.4,28.6,29.80,SSW,202,1.5,3.5,86,0.00,OVC,,0.00,WeatherDisplay:10.37,2013-01-17 05:30:00,
2013-01-17 00:35:00,32.4,28.6,29.80,WNW,292,1.4,2.3,86,0.00,OVC,,0.00,WeatherDisplay:10.37,2013-01-17 05:35:00,
2013-01-17 00:40:00,32.2,28.5,29.81,WNW,292,1.1,4.6,86,0.00,OVC,,0.00,WeatherDisplay:10.37,2013-01-17 05:40:00,
2013-01-17 00:45:00,32.0,28.3,29.81,WSW,248,1.3,2.3,86,0.00,OVC,,0.00,WeatherDisplay:10.37,2013-01-17 05:45:00,
2013-01-17 00:50:00,31.8,28.1,29.81,SSE,158,1.1,0.0,86,0.00,OVC,,0.00,WeatherDisplay:10.37,2013-01-17 05:50:00,
2013-01-17 00:55:00,31.8,28.1,29.81,East,90,1.1,4.6,86,0.00,OVC,,0.00,WeatherDisplay:10.37,2013-01-17 05:55:00,
2013-01-17 01:00:00,31.8,28.1,29.81,SSW,202,1.7,1.7,86,0.00,OVC,,0.00,WeatherDisplay:10.37,2013-01-17 06:00:00,
2013-01-17 01:05:00,31.8,28.1,29.81,SSE,158,2.0,2.0,86,0.00,OVC,,0.00,WeatherDisplay:10.37,2013-01-17 06:05:00,
2013-01-17 01:10:00,31.8,28.1,29.81,NNW,338,1.8,4.6,86,0.00,OVC,,0.00,WeatherDisplay:10.37,2013-01-17 06:10:00,
2013-01-17 01:15:00,31.5,27.8,29.81,NNE,22,1.6,3.5,86,0.00,OVC,,0.00,WeatherDisplay:10.37,2013-01-17 06:15:00,
2013-01-17 01:20:00,31.5,27.8,29.81,SSE,158,1.5,1.5,86,0.00,OVC,,0.00,WeatherDisplay:10.37,2013-01-17 06:20:00,
2013-01-17 01:25:00,31.3,27.6,29.81,SSE,158,1.1,1.1,86,0.00,OVC,,0.00,WeatherDisplay:10.37,2013-01-17 06:25:00,
2013-01-17 01:30:00,31.1,27.4,29.81,WSW,248,1.1,3.9,86,0.00,OVC,,0.00,WeatherDisplay:10.37,2013-01-17 06:30:00,
2013-01-17 01:35:00,31.1,27.4,29.81,SSE,158,1.5,2.3,86,0.00,OVC,,0.00,WeatherDisplay:10.37,2013-01-17 06:35:00,
2013-01-17 01:40:00,31.1,27.4,29.80,East,90,1.5,1.5,86,0.00,OVC,,0.00,WeatherDisplay:10.37,2013-01-17 06:40:00,
2013-01-17 01:45:00,31.1,27.4,29.80,WNW,292,0.7,1.1,86,0.00,OVC,,0.00,WeatherDisplay:10.37,2013-01-17 06:45:00,
2013-01-17 01:50:00,31.1,27.4,29.80,SW,225,0.8,2.3,86,0.00,OVC,,0.00,WeatherDisplay:10.37,2013-01-17 06:50:00,
2013-01-17 01:55:00,31.1,27.4,29.80,SW,225,1.5,2.3,86,0.00,OVC,,0.00,WeatherDisplay:10.37,2013-01-17 06:55:00,
2013-01-17 02:00:00,30.9,27.2,29.81,NNW,338,1.3,1.3,86,0.00,OVC,,0.00,WeatherDisplay:10.37,2013-01-17 07:00:00,
2013-01-17 02:05:00,30.7,27.0,29.81,SSE,158,0.9,2.3,86,0.00,BKN,,0.00,WeatherDisplay:10.37,2013-01-17 07:05:00,
2013-01-17 02:10:00,30.7,27.0,29.81,SSW,202,1.1,1.4,86,0.00,BKN,,0.00,WeatherDisplay:10.37,2013-01-17 07:10:00,
2013-01-17 02:15:00,30.7,27.0,29.81,NNW,338,1.1,1.1,86,0.00,BKN,,0.00,WeatherDisplay:10.37,2013-01-17 07:15:00,
2013-01-17 02:20:00,30.6,26.9,29.81,South,180,1.4,3.5,86,0.00,BKN,,0.00,WeatherDisplay:10.37,2013-01-17 07:20:00,
2013-01-17 02:25:00,30.6,26.9,29.81,WNW,292,1.4,2.3,86,0.00,BKN,,0.00,WeatherDisplay:10.37,2013-01-17 07:25:00,
2013-01-17 02:30:00,30.4,26.7,29.81,NE,45,0.9,0.0,86,0.00,BKN,,0.00,WeatherDisplay:10.37,2013-01-17 07:30:00,
2013-01-17 02:36:00,30.4,26.7,29.81,SSE,158,1.0,1.1,86,0.00,BKN,,0.00,WeatherDisplay:10.37,2013-01-17 07:36:00,
2013-01-17 02:41:00,30.4,26.7,29.81,WSW,248,1.1,2.3,86,0.00,BKN,,0.00,WeatherDisplay:10.37,2013-01-17 07:41:00,
2013-01-17 02:46:00,30.2,26.5,29.81,NW,315,0.8,2.3,86,0.00,BKN,,0.00,WeatherDisplay:10.37,2013-01-17 07:46:00,
2013-01-17 02:51:00,30.4,26.7,29.81,West,270,1.1,2.3,86,0.00,BKN,,0.00,WeatherDisplay:10.37,2013-01-17 07:51:00,
2013-01-17 02:56:00,30.4,26.7,29.81,SSE,158,0.9,0.0,86,0.00,BKN,,0.00,WeatherDisplay:10.37,2013-01-17 07:56:00,
2013-01-17 03:02:00,30.2,26.5,29.81,SW,225,0.7,0.0,86,0.00,OVC,,0.00,WeatherDisplay:10.37,2013-01-17 08:02:00,
2013-01-17 03:07:00,30.2,26.5,29.81,SW,225,0.7,0.0,86,0.00,OVC,,0.00,WeatherDisplay:10.37,2013-01-17 08:07:00,
2013-01-17 03:13:00,30.4,26.7,29.81,South,180,1.1,1.1,86,0.00,OVC,,0.00,WeatherDisplay:10.37,2013-01-17 08:13:00,
2013-01-17 03:18:00,30.0,26.3,29.80,ENE,68,1.1,0.0,86,0.00,OVC,,0.00,WeatherDisplay:10.37,2013-01-17 08:18:00,
2013-01-17 03:23:00,30.0,26.3,29.80,NW,315,0.9,3.5,86,0.00,OVC,,0.00,WeatherDisplay:10.37,2013-01-17 08:23:00,
2013-01-17 03:28:00,30.0,26.3,29.80,SSE,158,0.9,2.3,86,0.00,OVC,,0.00,WeatherDisplay:10.37,2013-01-17 08:28:00,
2013-01-17 03:33:00,30.0,26.3,29.80,SW,225,1.0,2.3,86,0.00,OVC,,0.00,WeatherDisplay:10.37,2013-01-17 08:33:00,
2013-01-17 03:38:00,30.0,26.3,29.81,SSW,202,1.1,2.3,86,0.00,OVC,,0.00,WeatherDisplay:10.37,2013-01-17 08:38:00,
2013-01-17 03:43:00,29.8,26.2,29.81,WNW,292,0.8,3.5,86,0.00,OVC,,0.00,WeatherDisplay:10.37,2013-01-17 08:43:00,
2013-01-17 03:48:00,29.8,26.2,29.81,WNW,292,1.0,4.6,86,0.00,OVC,,0.00,WeatherDisplay:10.37,2013-01-17 08:48:00,
2013-01-17 03:53:00,29.8,26.2,29.81,NNW,338,1.4,2.3,86,0.00,OVC,,0.00,WeatherDisplay:10.37,2013-01-17 08:53:00,
2013-01-17 03:58:00,29.8,26.2,29.81,SE,135,1.3,2.3,86,0.00,OVC,,0.00,WeatherDisplay:10.37,2013-01-17 08:58:00,
2013-01-17 04:03:00,29.8,26.2,29.81,WSW,248,1.1,4.6,86,0.00,SCT,,0.00,WeatherDisplay:10.37,2013-01-17 09:03:00,
2013-01-17 04:08:00,29.8,26.2,29.81,NE,45,1.3,1.3,86,0.00,SCT,,0.00,WeatherDisplay:10.37,2013-01-17 09:08:00,
2013-01-17 04:13:00,29.8,26.2,29.81,SW,225,1.5,5.8,86,0.00,SCT,,0.00,WeatherDisplay:10.37,2013-01-17 09:13:00,
2013-01-17 04:18:00,30.0,26.3,29.79,SW,225,1.6,2.3,86,0.00,SCT,,0.00,WeatherDisplay:10.37,2013-01-17 09:18:00,
2013-01-17 04:23:00,30.0,26.3,29.79,SSE,158,1.7,2.3,86,0.00,SCT,,0.00,WeatherDisplay:10.37,2013-01-17 09:23:00,
2013-01-17 04:28:00,29.7,26.0,29.79,NNE,22,1.7,3.5,86,0.00,SCT,,0.00,WeatherDisplay:10.37,2013-01-17 09:28:00,
2013-01-17 04:33:00,30.0,26.3,29.79,South,180,1.6,4.6,86,0.00,SCT,,0.00,WeatherDisplay:10.37,2013-01-17 09:33:00,
2013-01-17 04:38:00,29.7,26.0,29.79,NW,315,1.5,0.0,86,0.00,SCT,,0.00,WeatherDisplay:10.37,2013-01-17 09:38:00,
2013-01-17 04:43:00,29.7,26.0,29.79,NNW,338,1.1,0.0,86,0.00,SCT,,0.00,WeatherDisplay:10.37,2013-01-17 09:43:00,
2013-01-17 04:48:00,29.7,26.0,29.79,SW,225,1.0,1.1,86,0.00,SCT,,0.00,WeatherDisplay:10.37,2013-01-17 09:48:00,
2013-01-17 04:53:00,29.7,26.0,29.79,NNW,338,1.3,4.6,86,0.00,SCT,,0.00,WeatherDisplay:10.37,2013-01-17 09:53:00,
2013-01-17 04:58:00,29.5,25.8,29.79,South,180,1.5,2.3,86,0.00,SCT,,0.00,WeatherDisplay:10.37,2013-01-17 09:58:00,
2013-01-17 05:03:00,29.7,26.0,29.79,SSW,202,1.8,2.3,86,0.00,FEW,,0.00,WeatherDisplay:10.37,2013-01-17 10:03:00,
2013-01-17 05:08:00,29.7,26.0,29.79,South,180,1.7,4.6,86,0.00,FEW,,0.00,WeatherDisplay:10.37,2013-01-17 10:08:00,
2013-01-17 05:13:00,29.7,25.7,29.79,WNW,292,2.0,2.3,85,0.00,FEW,,0.00,WeatherDisplay:10.37,2013-01-17 10:13:00,
2013-01-17 05:18:00,29.7,26.0,29.80,NW,315,1.4,2.3,86,0.00,FEW,,0.00,WeatherDisplay:10.37,2013-01-17 10:18:00,
2013-01-17 05:23:00,29.7,26.0,29.80,NNW,338,1.0,3.5,86,0.00,FEW,,0.00,WeatherDisplay:10.37,2013-01-17 10:23:00,
2013-01-17 05:28:00,29.7,26.0,29.80,NNW,338,1.3,3.5,86,0.00,FEW,,0.00,WeatherDisplay:10.37,2013-01-17 10:28:00,
2013-01-17 05:33:00,29.3,25.6,29.80,NE,45,1.3,1.3,86,0.00,FEW,,0.00,WeatherDisplay:10.37,2013-01-17 10:33:00,
2013-01-17 05:38:00,29.3,25.4,29.81,WSW,248,1.3,2.3,85,0.00,FEW,,0.00,WeatherDisplay:10.37,2013-01-17 10:38:00,
2013-01-17 05:43:00,29.3,25.4,29.81,North,0,1.4,4.6,85,0.00,FEW,,0.00,WeatherDisplay:10.37,2013-01-17 10:43:00,
2013-01-17 05:48:00,29.3,25.4,29.81,NNW,338,1.8,2.3,85,0.00,FEW,,0.00,WeatherDisplay:10.37,2013-01-17 10:48:00,
2013-01-17 05:53:00,29.3,25.4,29.81,NNE,22,2.0,3.5,85,0.00,FEW,,0.00,WeatherDisplay:10.37,2013-01-17 10:53:00,
2013-01-17 05:58:00,29.1,25.2,29.81,West,270,1.7,2.3,85,0.00,FEW,,0.00,WeatherDisplay:10.37,2013-01-17 10:58:00,
2013-01-17 06:03:00,29.1,25.2,29.81,NNE,22,1.6,1.6,85,0.00,CLR,,0.00,WeatherDisplay:10.37,2013-01-17 11:03:00,
2013-01-17 06:08:00,29.1,25.2,29.81,NNE,22,1.6,1.6,85,0.00,CLR,,0.00,WeatherDisplay:10.37,2013-01-17 11:08:00,
2013-01-17 06:13:00,29.3,25.4,29.81,West,270,1.8,5.8,85,0.00,CLR,,0.00,WeatherDisplay:10.37,2013-01-17 11:13:00,
2013-01-17 06:18:00,29.3,25.4,29.82,NNW,338,2.2,2.3,85,0.00,CLR,,0.00,WeatherDisplay:10.37,2013-01-17 11:18:00,
2013-01-17 06:23:00,29.3,25.4,29.82,SW,225,1.6,1.6,85,0.00,CLR,,0.00,WeatherDisplay:10.37,2013-01-17 11:23:00,
2013-01-17 06:28:00,29.3,25.4,29.82,West,270,1.1,2.3,85,0.00,CLR,,0.00,WeatherDisplay:10.37,2013-01-17 11:28:00,
2013-01-17 06:33:00,29.1,25.2,29.82,NW,315,1.3,2.3,85,0.00,CLR,,0.00,WeatherDisplay:10.37,2013-01-17 11:33:00,
2013-01-17 06:38:00,29.1,25.2,29.84,WNW,292,1.6,2.3,85,0.00,CLR,,0.00,WeatherDisplay:10.37,2013-01-17 11:38:00,
2013-01-17 06:43:00,28.9,25.0,29.84,NW,315,1.7,4.6,85,0.00,CLR,,0.00,WeatherDisplay:10.37,2013-01-17 11:43:00,
2013-01-17 06:48:00,29.1,25.2,29.84,WNW,292,2.2,4.6,85,0.00,CLR,,0.00,WeatherDisplay:10.37,2013-01-17 11:48:00,
2013-01-17 06:53:00,29.1,25.2,29.84,East,90,2.4,4.6,85,0.00,CLR,,0.00,WeatherDisplay:10.37,2013-01-17 11:53:00,
2013-01-17 06:58:00,29.3,25.4,29.85,West,270,2.1,4.6,85,0.00,CLR,,0.00,WeatherDisplay:10.37,2013-01-17 11:58:00,
2013-01-17 07:03:00,28.9,25.0,29.85,WNW,292,1.5,1.5,85,0.00,CLR,,0.00,WeatherDisplay:10.37,2013-01-17 12:03:00,
2013-01-17 07:08:00,29.3,25.4,29.85,NNW,338,1.7,5.8,85,0.00,CLR,,0.00,WeatherDisplay:10.37,2013-01-17 12:08:00,
2013-01-17 07:13:00,29.3,25.1,29.85,NW,315,1.8,4.6,84,0.00,CLR,,0.00,WeatherDisplay:10.37,2013-01-17 12:13:00,
2013-01-17 07:18:00,29.3,25.1,29.85,WSW,248,1.7,2.3,84,0.00,CLR,,0.00,WeatherDisplay:10.37,2013-01-17 12:18:00,
2013-01-17 07:23:00,29.3,25.1,29.85,WSW,248,1.6,2.3,84,0.00,CLR,,0.00,WeatherDisplay:10.37,2013-01-17 12:23:00,
2013-01-17 07:28:00,29.7,25.7,29.85,NNW,338,1.7,3.5,85,0.00,CLR,,0.00,WeatherDisplay:10.37,2013-01-17 12:28:00,
2013-01-17 07:33:00,29.3,25.1,29.85,WNW,292,1.5,1.8,84,0.00,CLR,,0.00,WeatherDisplay:10.37,2013-01-17 12:33:00,
2013-01-17 07:38:00,29.7,25.7,29.87,WSW,248,1.8,2.3,85,0.00,CLR,,0.00,WeatherDisplay:10.37,2013-01-17 12:38:00,
2013-01-17 07:43:00,29.7,25.7,29.87,WNW,292,1.5,2.3,85,0.00,CLR,,0.00,WeatherDisplay:10.37,2013-01-17 12:43:00,
2013-01-17 07:48:00,29.7,25.7,29.87,West,270,1.5,6.9,85,0.00,CLR,,0.00,WeatherDisplay:10.37,2013-01-17 12:48:00,
2013-01-17 07:53:00,29.7,25.7,29.87,SW,225,1.8,1.8,85,0.00,CLR,,0.00,WeatherDisplay:10.37,2013-01-17 12:53:00,
2013-01-17 07:58:00,29.7,25.7,29.87,SSE,158,1.7,3.5,85,0.00,CLR,,0.00,WeatherDisplay:10.37,2013-01-17 12:58:00,
2013-01-17 08:03:00,30.0,25.8,29.87,WSW,248,1.4,4.6,84,0.00,CLR,,0.00,WeatherDisplay:10.37,2013-01-17 13:03:00,
2013-01-17 08:08:00,30.0,26.1,29.87,WSW,248,1.3,2.3,85,0.00,CLR,,0.00,WeatherDisplay:10.37,2013-01-17 13:08:00,
2013-01-17 08:13:00,30.4,26.1,29.87,North,0,2.0,4.6,84,0.00,CLR,,0.00,WeatherDisplay:10.37,2013-01-17 13:13:00,
2013-01-17 08:18:00,30.4,26.1,29.89,NNW,338,2.0,2.3,84,0.00,CLR,,0.00,WeatherDisplay:10.37,2013-01-17 13:18:00,
2013-01-17 08:24:00,30.4,26.1,29.89,West,270,1.4,2.3,84,0.00,CLR,,0.00,WeatherDisplay:10.37,2013-01-17 13:24:00,
2013-01-17 08:29:00,30.4,26.1,29.89,WNW,292,0.9,3.5,84,0.00,CLR,,0.00,WeatherDisplay:10.37,2013-01-17 13:29:00,
2013-01-17 08:34:00,30.4,26.1,29.89,ENE,68,0.8,1.1,84,0.00,CLR,,0.00,WeatherDisplay:10.37,2013-01-17 13:34:00,
2013-01-17 08:39:00,30.6,26.3,29.91,NW,315,1.0,0.0,84,0.00,CLR,,0.00,WeatherDisplay:10.37,2013-01-17 13:39:00,
2013-01-17 08:44:00,30.7,26.5,29.91,WNW,292,1.1,2.3,84,0.00,CLR,,0.00,WeatherDisplay:10.37,2013-01-17 13:44:00,
2013-01-17 08:50:00,31.1,26.8,29.91,SW,225,1.1,1.1,84,0.00,CLR,,0.00,WeatherDisplay:10.37,2013-01-17 13:50:00,
2013-01-17 08:56:00,31.1,26.8,29.91,SW,225,1.1,3.5,84,0.00,CLR,,0.00,WeatherDisplay:10.37,2013-01-17 13:56:00,
2013-01-17 09:01:00,31.1,26.8,29.92,WSW,248,1.0,0.0,84,0.00,CLR,,0.00,WeatherDisplay:10.37,2013-01-17 14:01:00,
2013-01-17 09:06:00,31.1,26.8,29.92,North,0,0.8,2.3,84,0.00,CLR,,0.00,WeatherDisplay:10.37,2013-01-17 14:06:00,
2013-01-17 09:11:00,31.1,26.8,29.92,NNW,338,0.9,0.0,84,0.00,CLR,,0.00,WeatherDisplay:10.37,2013-01-17 14:11:00,
2013-01-17 09:16:00,31.1,26.8,29.92,West,270,1.0,3.5,84,0.00,CLR,,0.00,WeatherDisplay:10.37,2013-01-17 14:16:00,
2013-01-17 09:21:00,31.5,27.2,29.91,WSW,248,1.5,4.6,84,0.00,CLR,,0.00,WeatherDisplay:10.37,2013-01-17 14:21:00,
2013-01-17 09:26:00,31.3,27.0,29.91,WSW,248,1.5,2.3,84,0.00,CLR,,0.00,WeatherDisplay:10.37,2013-01-17 14:26:00,
2013-01-17 09:31:00,31.5,27.2,29.91,SSE,158,1.3,3.5,84,0.00,CLR,,0.00,WeatherDisplay:10.37,2013-01-17 14:31:00,
2013-01-17 09:36:00,31.8,27.5,29.91,West,270,1.7,3.5,84,0.00,CLR,,0.00,WeatherDisplay:10.37,2013-01-17 14:36:00,
2013-01-17 09:41:00,31.8,27.5,29.96,WSW,248,1.3,2.6,84,0.00,CLR,,0.00,WeatherDisplay:10.37,2013-01-17 14:41:00,
2013-01-17 09:46:00,32.2,27.9,29.96,SE,135,1.4,6.9,84,0.00,CLR,,0.00,WeatherDisplay:10.37,2013-01-17 14:46:00,
2013-01-17 09:51:00,32.5,28.2,29.96,WSW,248,1.1,2.3,84,0.00,CLR,,0.00,WeatherDisplay:10.37,2013-01-17 14:51:00,
2013-01-17 09:56:00,32.7,28.4,29.96,SW,225,1.1,6.2,84,0.00,CLR,,0.00,WeatherDisplay:10.37,2013-01-17 14:56:00,
2013-01-17 10:01:00,32.9,28.6,29.98,SW,225,1.8,0.0,84,0.00,CLR,,0.00,WeatherDisplay:10.37,2013-01-17 15:01:00,
2013-01-17 10:06:00,33.3,28.7,29.98,WNW,292,2.3,3.5,83,0.00,CLR,,0.00,WeatherDisplay:10.37,2013-01-17 15:06:00,
2013-01-17 10:11:00,33.4,28.8,29.98,SW,225,1.7,2.3,83,0.00,CLR,,0.00,WeatherDisplay:10.37,2013-01-17 15:11:00,
2013-01-17 10:16:00,33.6,29.0,29.98,WSW,248,1.6,2.3,83,0.00,CLR,,0.00,WeatherDisplay:10.37,2013-01-17 15:16:00,
2013-01-17 10:21:00,34.0,29.4,29.99,NNW,338,1.7,2.3,83,0.00,CLR,,0.00,WeatherDisplay:10.37,2013-01-17 15:21:00,
2013-01-17 10:26:00,34.2,29.5,29.99,SSE,158,1.8,2.3,83,0.00,CLR,,0.00,WeatherDisplay:10.37,2013-01-17 15:26:00,
2013-01-17 10:31:00,34.2,29.5,29.99,South,180,2.3,4.6,83,0.00,CLR,,0.00,WeatherDisplay:10.37,2013-01-17 15:31:00,
2013-01-17 10:36:00,34.3,29.7,29.99,WNW,292,1.4,2.3,83,0.00,CLR,,0.00,WeatherDisplay:10.37,2013-01-17 15:36:00,
2013-01-17 10:41:00,34.3,29.7,29.99,South,180,0.9,1.1,83,0.00,CLR,,0.00,WeatherDisplay:10.37,2013-01-17 15:41:00,
2013-01-17 10:46:00,34.3,29.7,29.99,SSW,202,1.7,4.6,83,0.00,CLR,,0.00,WeatherDisplay:10.37,2013-01-17 15:46:00,
2013-01-17 10:51:00,34.3,29.7,29.99,SE,135,1.7,3.5,83,0.00,CLR,,0.00,WeatherDisplay:10.37,2013-01-17 15:51:00,
2013-01-17 10:56:00,34.3,29.7,29.99,WNW,292,1.5,2.3,83,0.00,CLR,,0.00,WeatherDisplay:10.37,2013-01-17 15:56:00,
2013-01-17 11:01:00,34.3,29.7,29.99,WNW,292,1.6,2.3,83,0.00,CLR,,0.00,WeatherDisplay:10.37,2013-01-17 16:01:00,
2013-01-17 11:06:00,34.7,30.1,29.99,West,270,2.0,2.3,83,0.00,CLR,,0.00,WeatherDisplay:10.37,2013-01-17 16:06:00,
2013-01-17 11:11:00,34.7,30.1,29.99,West,270,2.6,4.6,83,0.00,CLR,,0.00,WeatherDisplay:10.37,2013-01-17 16:11:00,
2013-01-17 11:16:00,34.7,30.1,29.99,SW,225,2.6,3.5,83,0.00,CLR,,0.00,WeatherDisplay:10.37,2013-01-17 16:16:00,
2013-01-17 11:21:00,34.9,30.2,30.00,NW,315,2.5,2.5,83,0.00,CLR,,0.00,WeatherDisplay:10.37,2013-01-17 16:21:00,
2013-01-17 11:26:00,35.1,30.4,30.00,WSW,248,2.5,0.0,83,0.00,CLR,,0.00,WeatherDisplay:10.37,2013-01-17 16:26:00,
2013-01-17 11:31:00,35.1,30.4,30.00,WSW,248,2.1,2.3,83,0.00,CLR,,0.00,WeatherDisplay:10.37,2013-01-17 16:31:00,
2013-01-17 11:36:00,35.1,30.1,30.00,SW,225,2.6,8.1,82,0.00,CLR,,0.00,WeatherDisplay:10.37,2013-01-17 16:36:00,
2013-01-17 11:41:00,35.2,30.3,29.99,WSW,248,2.6,4.6,82,0.00,CLR,,0.00,WeatherDisplay:10.37,2013-01-17 16:41:00,
2013-01-17 11:46:00,35.4,30.5,29.99,NE,45,2.3,4.6,82,0.00,CLR,,0.00,WeatherDisplay:10.37,2013-01-17 16:46:00,
2013-01-17 11:51:00,35.8,30.8,29.99,South,180,2.0,2.3,82,0.00,CLR,,0.00,WeatherDisplay:10.37,2013-01-17 16:51:00,
2013-01-17 11:56:00,35.6,30.6,29.99,SSW,202,2.4,5.8,82,0.00,CLR,,0.00,WeatherDisplay:10.37,2013-01-17 16:56:00,
2013-01-17 12:01:00,35.6,30.3,29.99,WNW,292,2.6,3.5,81,0.00,CLR,,0.00,WeatherDisplay:10.37,2013-01-17 17:01:00,
2013-01-17 12:06:00,35.6,30.3,29.99,WNW,292,2.6,3.5,81,0.00,CLR,,0.00,WeatherDisplay:10.37,2013-01-17 17:06:00,
2013-01-17 12:11:00,36.1,30.9,29.99,West,270,2.2,4.6,81,0.00,CLR,,0.00,WeatherDisplay:10.37,2013-01-17 17:11:00,
2013-01-17 12:16:00,36.0,30.7,29.99,WNW,292,2.3,3.5,81,0.00,CLR,,0.00,WeatherDisplay:10.37,2013-01-17 17:16:00,
2013-01-17 12:21:00,36.3,31.0,29.99,WSW,248,2.5,3.5,81,0.00,CLR,,0.00,WeatherDisplay:10.37,2013-01-17 17:21:00,
2013-01-17 12:26:00,36.3,31.0,29.99,WNW,292,2.3,6.9,81,0.00,CLR,,0.00,WeatherDisplay:10.37,2013-01-17 17:26:00,
2013-01-17 12:31:00,36.3,31.0,29.99,SW,225,2.6,3.5,81,0.00,CLR,,0.00,WeatherDisplay:10.37,2013-01-17 17:31:00,
2013-01-17 12:36:00,36.3,31.0,29.99,WSW,248,2.8,4.6,81,0.00,CLR,,0.00,WeatherDisplay:10.37,2013-01-17 17:36:00,
2013-01-17 12:41:00,37.0,31.8,30.00,South,180,2.3,3.5,81,0.00,CLR,,0.01,WeatherDisplay:10.37,2013-01-17 17:41:00,
2013-01-17 12:46:00,36.9,31.6,30.00,NW,315,2.3,3.5,81,0.01,RA,,0.01,WeatherDisplay:10.37,2013-01-17 17:46:00,
2013-01-17 12:51:00,36.7,31.1,30.00,WNW,292,2.6,4.6,80,0.01,RA,,0.01,WeatherDisplay:10.37,2013-01-17 17:51:00,
2013-01-17 12:56:00,36.9,31.3,30.00,SW,225,2.4,3.5,80,0.01,CLR,,0.01,WeatherDisplay:10.37,2013-01-17 17:56:00,
2013-01-17 13:01:00,36.9,31.3,30.00,NNW,338,1.4,2.3,80,0.01,CLR,,0.01,WeatherDisplay:10.37,2013-01-17 18:01:00,
2013-01-17 13:06:00,37.2,31.6,30.00,SW,225,1.1,4.6,80,0.01,CLR,,0.01,WeatherDisplay:10.37,2013-01-17 18:06:00,
2013-01-17 13:11:00,37.2,31.6,30.00,ENE,68,1.3,0.0,80,0.01,CLR,,0.01,WeatherDisplay:10.37,2013-01-17 18:11:00,
2013-01-17 13:16:00,37.4,31.5,30.00,SSW,202,2.1,4.6,79,0.03,RA,,0.03,WeatherDisplay:10.37,2013-01-17 18:16:00,
2013-01-17 13:21:00,37.2,31.0,30.00,WNW,292,2.8,5.8,78,0.03,RA,,0.03,WeatherDisplay:10.37,2013-01-17 18:21:00,
2013-01-17 13:26:00,37.0,30.8,30.00,WNW,292,2.3,2.3,78,0.03,CLR,,0.03,WeatherDisplay:10.37,2013-01-17 18:26:00,
2013-01-17 13:31:00,37.6,31.3,30.00,NE,45,1.6,4.6,78,0.03,CLR,,0.03,WeatherDisplay:10.37,2013-01-17 18:31:00,
2013-01-17 13:36:00,37.4,30.8,30.00,South,180,1.8,4.6,77,0.03,CLR,,0.03,WeatherDisplay:10.37,2013-01-17 18:36:00,
2013-01-17 13:41:00,38.7,31.1,30.00,NNE,22,2.8,8.1,74,0.03,CLR,,0.03,WeatherDisplay:10.37,2013-01-17 18:41:00,
2013-01-17 13:46:00,39.0,31.8,30.00,WNW,292,2.9,5.8,75,0.01,CLR,,0.03,WeatherDisplay:10.37,2013-01-17 18:46:00,
2013-01-17 13:51:00,38.7,30.7,30.00,West,270,2.3,2.3,73,0.03,RA,,0.04,WeatherDisplay:10.37,2013-01-17 18:51:00,
2013-01-17 13:56:00,38.7,30.7,30.00,SE,135,2.4,5.8,73,0.03,RA,,0.04,WeatherDisplay:10.37,2013-01-17 18:56:00,
2013-01-17 14:01:00,38.3,30.1,30.01,NW,315,2.8,2.8,72,0.03,CLR,,0.04,WeatherDisplay:10.37,2013-01-17 19:01:00,
2013-01-17 14:06:00,38.5,30.2,30.01,NNE,22,3.0,3.5,72,0.03,CLR,,0.04,WeatherDisplay:10.37,2013-01-17 19:06:00,
2013-01-17 14:11:00,38.3,30.4,30.01,East,90,2.6,5.8,73,0.03,CLR,,0.04,WeatherDisplay:10.37,2013-01-17 19:11:00,
2013-01-17 14:16:00,38.3,30.1,30.01,NW,315,2.4,4.6,72,0.03,CLR,,0.04,WeatherDisplay:10.37,2013-01-17 19:16:00,
2013-01-17 14:21:00,38.1,30.6,30.02,SW,225,2.4,3.5,74,0.01,CLR,,0.04,WeatherDisplay:10.37,2013-01-17 19:21:00,
2013-01-17 14:26:00,37.9,30.7,30.02,SW,225,2.1,2.3,75,0.03,RA,,0.06,WeatherDisplay:10.37,2013-01-17 19:26:00,
2013-01-17 14:31:00,38.3,30.4,30.02,SSW,202,2.1,4.6,73,0.03,RA,,0.06,WeatherDisplay:10.37,2013-01-17 19:31:00,
2013-01-17 14:36:00,38.3,30.7,30.02,WSW,248,2.1,2.3,74,0.03,RA,,0.06,WeatherDisplay:10.37,2013-01-17 19:36:00,
2013-01-17 14:41:00,37.9,30.1,30.03,WSW,248,1.7,4.6,73,0.03,CLR,,0.06,WeatherDisplay:10.37,2013-01-17 19:41:00,
2013-01-17 14:46:00,37.8,29.5,30.03,NW,315,2.2,6.9,72,0.03,CLR,,0.06,WeatherDisplay:10.37,2013-01-17 19:46:00,
2013-01-17 14:51:00,37.8,29.2,30.03,NE,45,2.6,5.8,71,0.01,CLR,,0.06,WeatherDisplay:10.37,2013-01-17 19:51:00,
2013-01-17 14:56:00,37.4,28.5,30.03,WNW,292,2.4,4.6,70,0.01,CLR,,0.06,WeatherDisplay:10.37,2013-01-17 19:56:00,
2013-01-17 15:01:00,37.6,29.7,30.03,SE,135,2.0,2.0,73,0.01,CLR,,0.06,WeatherDisplay:10.37,2013-01-17 20:01:00,
2013-01-17 15:06:00,37.2,28.7,30.03,SW,225,1.8,2.3,71,0.01,CLR,,0.06,WeatherDisplay:10.37,2013-01-17 20:06:00,
2013-01-17 15:11:00,37.2,28.7,30.03,WNW,292,1.6,1.6,71,0.01,CLR,,0.06,WeatherDisplay:10.37,2013-01-17 20:11:00,
2013-01-17 15:16:00,37.2,28.3,30.03,WSW,248,1.8,3.5,70,0.01,CLR,,0.06,WeatherDisplay:10.37,2013-01-17 20:16:00,
2013-01-17 15:21:00,36.9,28.3,30.03,NW,315,2.0,2.3,71,0.03,RA,,0.07,WeatherDisplay:10.37,2013-01-17 20:21:00,
2013-01-17 15:26:00,36.9,27.6,30.03,WNW,292,1.8,5.9,69,0.03,RA,,0.07,WeatherDisplay:10.37,2013-01-17 20:26:00,
2013-01-17 15:31:00,36.9,28.3,30.03,SW,225,1.6,4.6,71,0.01,CLR,,0.07,WeatherDisplay:10.37,2013-01-17 20:31:00,
2013-01-17 15:36:00,36.3,27.5,30.03,NNW,338,1.3,1.3,70,0.01,CLR,,0.07,WeatherDisplay:10.37,2013-01-17 20:36:00,
2013-01-17 15:42:00,36.3,28.2,30.03,NW,315,1.4,3.5,72,0.01,CLR,,0.07,WeatherDisplay:10.37,2013-01-17 20:42:00,
2013-01-17 15:47:00,36.1,28.0,30.03,WNW,292,1.3,2.3,72,0.01,CLR,,0.07,WeatherDisplay:10.37,2013-01-17 20:47:00,
2013-01-17 15:52:00,36.1,28.0,30.03,NW,315,1.5,4.6,72,0.01,CLR,,0.07,WeatherDisplay:10.37,2013-01-17 20:52:00,
2013-01-17 15:57:00,36.1,28.0,29.99,NW,315,1.5,3.5,72,0.01,CLR,,0.07,WeatherDisplay:10.37,2013-01-17 20:57:00,
2013-01-17 16:02:00,35.6,27.5,29.99,North,0,1.3,4.6,72,0.01,CLR,,0.07,WeatherDisplay:10.37,2013-01-17 21:02:00,
2013-01-17 16:07:00,35.4,27.3,29.99,NW,315,1.4,2.3,72,0.01,CLR,,0.07,WeatherDisplay:10.37,2013-01-17 21:07:00,
2013-01-17 16:12:00,35.4,27.3,29.99,North,0,1.8,4.6,72,0.01,CLR,,0.07,WeatherDisplay:10.37,2013-01-17 21:12:00,
2013-01-17 16:17:00,35.4,27.3,29.98,NNW,338,1.1,4.6,72,0.01,CLR,,0.07,WeatherDisplay:10.37,2013-01-17 21:17:00,
2013-01-17 16:22:00,35.1,26.3,29.98,NW,315,1.6,4.6,70,0.00,CLR,,0.07,WeatherDisplay:10.37,2013-01-17 21:22:00,
2013-01-17 16:27:00,34.7,25.9,29.98,West,270,2.0,2.0,70,0.00,CLR,,0.07,WeatherDisplay:10.37,2013-01-17 21:27:00,
2013-01-17 16:32:00,34.3,25.2,29.98,WSW,248,1.8,2.3,69,0.00,CLR,,0.07,WeatherDisplay:10.37,2013-01-17 21:32:00,
2013-01-17 16:38:00,34.2,25.4,29.98,West,270,1.7,3.5,70,0.00,CLR,,0.07,WeatherDisplay:10.37,2013-01-17 21:38:00,
2013-01-17 16:43:00,33.8,25.4,29.98,WNW,292,1.3,0.0,71,0.00,CLR,,0.07,WeatherDisplay:10.37,2013-01-17 21:43:00,
2013-01-17 16:48:00,33.6,25.6,29.98,NNW,338,0.9,0.0,72,0.00,CLR,,0.07,WeatherDisplay:10.37,2013-01-17 21:48:00,
2013-01-17 16:53:00,33.4,25.4,29.98,West,270,0.5,3.5,72,0.00,CLR,,0.07,WeatherDisplay:10.37,2013-01-17 21:53:00,
2013-01-17 16:58:00,33.4,25.7,30.00,NW,315,0.3,0.0,73,0.00,CLR,,0.07,WeatherDisplay:10.37,2013-01-17 21:58:00,
2013-01-17 17:03:00,33.3,25.9,30.00,West,270,0.2,0.0,74,0.00,CLR,,0.07,WeatherDisplay:10.37,2013-01-17 22:03:00,
2013-01-17 17:08:00,33.3,25.9,30.00,SW,225,0.1,0.0,74,0.00,CLR,,0.07,WeatherDisplay:10.37,2013-01-17 22:08:00,
2013-01-17 17:13:00,32.9,25.8,30.00,WNW,292,0.2,1.1,75,0.00,CLR,,0.07,WeatherDisplay:10.37,2013-01-17 22:13:00,
2013-01-17 17:18:00,32.7,25.7,30.01,North,0,0.2,1.1,75,0.00,CLR,,0.07,WeatherDisplay:10.37,2013-01-17 22:18:00,
2013-01-17 17:23:00,32.7,25.7,30.01,WSW,248,0.1,0.0,75,0.00,CLR,,0.07,WeatherDisplay:10.37,2013-01-17 22:23:00,
2013-01-17 17:28:00,32.7,26.0,30.01,NNE,22,0.2,1.1,76,0.00,CLR,,0.07,WeatherDisplay:10.37,2013-01-17 22:28:00,
2013-01-17 17:33:00,32.5,25.8,30.01,SW,225,0.1,0.0,76,0.00,CLR,,0.07,WeatherDisplay:10.37,2013-01-17 22:33:00,
2013-01-17 17:38:00,32.5,25.2,30.01,SW,225,0.3,1.1,74,0.00,CLR,,0.07,WeatherDisplay:10.37,2013-01-17 22:38:00,
2013-01-17 17:43:00,32.7,25.0,30.01,NW,315,0.3,0.0,73,0.00,CLR,,0.07,WeatherDisplay:10.37,2013-01-17 22:43:00,
2013-01-17 17:48:00,32.5,25.2,30.01,NNW,338,0.2,0.0,74,0.00,CLR,,0.07,WeatherDisplay:10.37,2013-01-17 22:48:00,
2013-01-17 17:53:00,32.5,25.5,30.01,East,90,0.2,0.0,75,0.00,CLR,,0.07,WeatherDisplay:10.37,2013-01-17 22:53:00,
2013-01-17 17:58:00,32.4,25.0,30.02,NW,315,0.3,1.1,74,0.00,CLR,,0.07,WeatherDisplay:10.37,2013-01-17 22:58:00,
2013-01-17 18:03:00,32.5,25.2,30.02,NW,315,0.3,0.0,74,0.00,FEW,,0.07,WeatherDisplay:10.37,2013-01-17 23:03:00,
2013-01-17 18:08:00,32.4,25.0,30.02,NE,45,0.3,1.3,74,0.00,FEW,,0.07,WeatherDisplay:10.37,2013-01-17 23:08:00,
2013-01-17 18:13:00,32.2,24.5,30.02,SW,225,0.2,0.0,73,0.00,FEW,,0.07,WeatherDisplay:10.37,2013-01-17 23:13:00,
2013-01-17 18:18:00,32.2,24.8,30.03,NW,315,0.3,0.0,74,0.00,FEW,,0.07,WeatherDisplay:10.37,2013-01-17 23:18:00,
2013-01-17 18:23:00,32.2,24.8,30.03,South,180,0.6,2.3,74,0.00,FEW,,0.07,WeatherDisplay:10.37,2013-01-17 23:23:00,
2013-01-17 18:28:00,32.2,24.8,30.03,SW,225,0.7,2.3,74,0.00,FEW,,0.07,WeatherDisplay:10.37,2013-01-17 23:28:00,
2013-01-17 18:33:00,32.0,24.6,30.03,SW,225,0.8,1.1,74,0.00,FEW,,0.07,WeatherDisplay:10.37,2013-01-17 23:33:00,
2013-01-17 18:38:00,31.8,24.1,30.06,West,270,1.1,2.3,73,0.00,FEW,,0.07,WeatherDisplay:10.37,2013-01-17 23:38:00,
2013-01-17 18:43:00,31.8,23.1,30.06,NE,45,1.0,2.3,70,0.00,FEW,,0.07,WeatherDisplay:10.37,2013-01-17 23:43:00,
2013-01-17 18:48:00,31.8,22.8,30.06,NW,315,1.1,3.5,69,0.00,FEW,,0.07,WeatherDisplay:10.37,2013-01-17 23:48:00,
2013-01-17 18:53:00,31.8,22.8,30.06,SSE,158,1.1,0.0,69,0.00,FEW,,0.07,WeatherDisplay:10.37,2013-01-17 23:53:00,
2013-01-17 18:58:00,31.8,22.5,30.03,NE,45,1.4,2.3,68,0.00,FEW,,0.07,WeatherDisplay:10.37,2013-01-17 23:58:00,
2013-01-17 19:03:00,31.6,23.0,30.03,NNE,22,0.8,0.0,70,0.00,CLR,,0.07,WeatherDisplay:10.37,2013-01-18 00:03:00,
2013-01-17 19:08:00,31.8,23.1,30.03,SW,225,0.8,2.3,70,0.00,CLR,,0.07,WeatherDisplay:10.37,2013-01-18 00:08:00,
2013-01-17 19:13:00,31.5,22.8,30.03,WSW,248,0.8,2.3,70,0.00,CLR,,0.07,WeatherDisplay:10.37,2013-01-18 00:13:00,
2013-01-17 19:18:00,31.5,22.8,30.05,NE,45,0.6,2.3,70,0.00,CLR,,0.07,WeatherDisplay:10.37,2013-01-18 00:18:00,
2013-01-17 19:23:00,31.5,23.1,30.05,NE,45,0.5,0.0,71,0.00,CLR,,0.07,WeatherDisplay:10.37,2013-01-18 00:23:00,
2013-01-17 19:28:00,31.5,23.1,30.05,NNE,22,0.6,3.5,71,0.00,CLR,,0.07,WeatherDisplay:10.37,2013-01-18 00:28:00,
2013-01-17 19:33:00,31.5,22.5,30.05,NW,315,0.8,1.1,69,0.00,CLR,,0.07,WeatherDisplay:10.37,2013-01-18 00:33:00,
2013-01-17 19:38:00,31.1,22.1,30.06,NNE,22,0.9,1.1,69,0.00,CLR,,0.07,WeatherDisplay:10.37,2013-01-18 00:38:00,
2013-01-17 19:43:00,31.1,21.4,30.06,ENE,68,1.1,1.1,67,0.00,CLR,,0.07,WeatherDisplay:10.37,2013-01-18 00:43:00,
2013-01-17 19:48:00,30.9,21.2,30.06,WNW,292,1.4,2.3,67,0.00,CLR,,0.07,WeatherDisplay:10.37,2013-01-18 00:48:00,
2013-01-17 19:53:00,30.7,21.1,30.06,WSW,248,0.9,2.3,67,0.00,CLR,,0.07,WeatherDisplay:10.37,2013-01-18 00:53:00,
2013-01-17 19:58:00,30.7,21.1,30.05,NNW,338,0.7,2.3,67,0.00,CLR,,0.07,WeatherDisplay:10.37,2013-01-18 00:58:00,
2013-01-17 20:03:00,30.6,20.5,30.05,NW,315,0.8,1.1,66,0.00,FEW,,0.07,WeatherDisplay:10.37,2013-01-18 01:03:00,
2013-01-17 20:08:00,30.6,20.5,30.05,West,270,0.8,0.0,66,0.00,FEW,,0.07,WeatherDisplay:10.37,2013-01-18 01:08:00,
2013-01-17 20:13:00,30.4,20.4,30.05,NNW,338,1.1,1.1,66,0.00,FEW,,0.07,WeatherDisplay:10.37,2013-01-18 01:13:00,
2013-01-17 20:18:00,30.4,20.4,30.03,NNW,338,1.1,2.3,66,0.00,FEW,,0.07,WeatherDisplay:10.37,2013-01-18 01:18:00,
2013-01-17 20:23:00,30.4,20.4,30.03,SW,225,1.4,2.3,66,0.00,FEW,,0.07,WeatherDisplay:10.37,2013-01-18 01:23:00,
2013-01-17 20:28:00,30.4,20.4,30.03,East,90,1.6,3.5,66,0.00,FEW,,0.07,WeatherDisplay:10.37,2013-01-18 01:28:00,
2013-01-17 20:33:00,30.0,19.7,30.03,WSW,248,1.4,0.0,65,0.00,FEW,,0.07,WeatherDisplay:10.37,2013-01-18 01:33:00,
2013-01-17 20:39:00,30.0,19.7,30.04,SW,225,1.6,2.3,65,0.00,FEW,,0.07,WeatherDisplay:10.37,2013-01-18 01:39:00,
2013-01-17 20:44:00,29.8,19.9,30.04,NNW,338,1.6,2.3,66,0.00,FEW,,0.07,WeatherDisplay:10.37,2013-01-18 01:44:00,
2013-01-17 20:49:00,29.7,19.7,30.04,SW,225,1.1,2.3,66,0.00,FEW,,0.07,WeatherDisplay:10.37,2013-01-18 01:49:00,
2013-01-17 20:54:00,29.7,19.7,30.04,WSW,248,1.1,3.5,66,0.00,FEW,,0.07,WeatherDisplay:10.37,2013-01-18 01:54:00,
2013-01-17 20:59:00,29.7,19.3,30.03,WSW,248,1.6,2.3,65,0.00,FEW,,0.07,WeatherDisplay:10.37,2013-01-18 01:59:00,
2013-01-17 21:04:00,29.5,18.4,30.03,WNW,292,2.2,4.6,63,0.00,CLR,,0.07,WeatherDisplay:10.37,2013-01-18 02:04:00,
2013-01-17 21:09:00,29.3,18.3,30.03,North,0,2.5,4.6,63,0.00,CLR,,0.07,WeatherDisplay:10.37,2013-01-18 02:09:00,
2013-01-17 21:14:00,29.3,17.9,30.03,NNW,338,2.3,4.6,62,0.00,CLR,,0.07,WeatherDisplay:10.37,2013-01-18 02:14:00,
2013-01-17 21:20:00,29.3,17.9,30.03,SW,225,2.1,2.3,62,0.00,CLR,,0.07,WeatherDisplay:10.37,2013-01-18 02:20:00,
2013-01-17 21:25:00,28.9,17.9,30.03,WSW,248,1.4,1.4,63,0.00,CLR,,0.07,WeatherDisplay:10.37,2013-01-18 02:25:00,
2013-01-17 21:30:00,28.9,18.3,30.03,SW,225,1.1,1.1,64,0.00,CLR,,0.07,WeatherDisplay:10.37,2013-01-18 02:30:00,
2013-01-17 21:35:00,28.9,17.5,30.03,NW,315,1.4,2.3,62,0.00,CLR,,0.07,WeatherDisplay:10.37,2013-01-18 02:35:00,
2013-01-17 21:40:00,28.9,17.9,30.03,NNW,338,1.6,2.3,63,0.00,CLR,,0.07,WeatherDisplay:10.37,2013-01-18 02:40:00,
2013-01-17 21:45:00,28.6,17.6,30.03,WSW,248,1.4,3.5,63,0.00,CLR,,0.07,WeatherDisplay:10.37,2013-01-18 02:45:00,
2013-01-17 21:50:00,28.6,17.9,30.03,SSE,158,1.1,2.3,64,0.00,CLR,,0.07,WeatherDisplay:10.37,2013-01-18 02:50:00,
2013-01-17 21:55:00,28.4,17.8,30.03,NNE,22,0.8,1.1,64,0.00,CLR,,0.07,WeatherDisplay:10.37,2013-01-18 02:55:00,
2013-01-17 22:00:00,28.4,17.4,30.02,NNW,338,0.9,1.1,63,0.00,CLR,,0.07,WeatherDisplay:10.37,2013-01-18 03:00:00,
2013-01-17 22:05:00,28.6,17.6,30.02,NNW,338,1.6,4.6,63,0.00,CLR,,0.07,WeatherDisplay:10.37,2013-01-18 03:05:00,
2013-01-17 22:10:00,28.2,17.2,30.02,South,180,1.5,2.3,63,0.00,CLR,,0.07,WeatherDisplay:10.37,2013-01-18 03:10:00,
2013-01-17 22:15:00,28.2,17.2,30.02,North,0,1.1,2.3,63,0.00,CLR,,0.07,WeatherDisplay:10.37,2013-01-18 03:15:00,
2013-01-17 22:20:00,28.2,17.6,30.03,NE,45,0.7,3.5,64,0.00,CLR,,0.07,WeatherDisplay:10.37,2013-01-18 03:20:00,
2013-01-17 22:25:00,28.2,17.6,30.03,NW,315,0.7,1.1,64,0.00,CLR,,0.07,WeatherDisplay:10.37,2013-01-18 03:25:00,
2013-01-17 22:30:00,28.2,17.2,30.03,NE,45,0.9,1.1,63,0.00,CLR,,0.07,WeatherDisplay:10.37,2013-01-18 03:30:00,
2013-01-17 22:35:00,28.2,17.6,30.03,SW,225,0.8,0.0,64,0.00,CLR,,0.07,WeatherDisplay:10.37,2013-01-18 03:35:00,
2013-01-17 22:41:00,27.9,16.9,30.03,ENE,68,1.0,1.1,63,0.00,CLR,,0.07,WeatherDisplay:10.37,2013-01-18 03:41:00,
2013-01-17 22:46:00,27.9,16.9,30.03,NW,315,1.1,3.5,63,0.00,CLR,,0.07,WeatherDisplay:10.37,2013-01-18 03:46:00,
2013-01-17 22:51:00,27.7,16.3,30.03,WNW,292,1.1,3.5,62,0.00,CLR,,0.07,WeatherDisplay:10.37,2013-01-18 03:51:00,
2013-01-17 22:56:00,27.9,16.5,30.03,North,0,1.1,2.3,62,0.00,CLR,,0.07,WeatherDisplay:10.37,2013-01-18 03:56:00,
2013-01-17 23:01:00,27.5,15.8,30.01,NNW,338,1.0,1.1,61,0.00,FEW,,0.07,WeatherDisplay:10.37,2013-01-18 04:01:00,
2013-01-17 23:06:00,27.5,16.2,30.01,NE,45,0.8,3.5,62,0.00,FEW,,0.07,WeatherDisplay:10.37,2013-01-18 04:06:00,
2013-01-17 23:11:00,27.5,16.2,30.01,WNW,292,0.7,2.3,62,0.00,FEW,,0.07,WeatherDisplay:10.37,2013-01-18 04:11:00,
2013-01-17 23:16:00,27.5,16.2,30.01,NW,315,0.9,2.3,62,0.00,FEW,,0.07,WeatherDisplay:10.37,2013-01-18 04:16:00,
2013-01-17 23:21:00,27.1,16.2,30.00,SW,225,0.7,2.3,63,0.00,FEW,,0.07,WeatherDisplay:10.37,2013-01-18 04:21:00,
2013-01-17 23:26:00,27.1,16.9,30.00,East,90,0.3,0.0,65,0.00,FEW,,0.07,WeatherDisplay:10.37,2013-01-18 04:26:00,
2013-01-17 23:31:00,27.1,16.6,30.00,WSW,248,0.2,1.1,64,0.00,FEW,,0.07,WeatherDisplay:10.37,2013-01-18 04:31:00,
2013-01-17 23:36:00,27.0,16.8,30.00,NNE,22,0.3,1.1,65,0.00,FEW,,0.07,WeatherDisplay:10.37,2013-01-18 04:36:00,
2013-01-17 23:41:00,27.0,16.8,30.00,SW,225,0.3,1.1,65,0.00,FEW,,0.07,WeatherDisplay:10.37,2013-01-18 04:41:00,
2013-01-17 23:46:00,27.1,16.9,30.00,NNE,22,0.5,2.3,65,0.00,FEW,,0.07,WeatherDisplay:10.37,2013-01-18 04:46:00,
2013-01-17 23:51:00,26.8,16.6,30.00,SSE,158,0.5,2.3,65,0.00,FEW,,0.07,WeatherDisplay:10.37,2013-01-18 04:51:00,
2013-01-17 23:56:00,26.8,16.6,30.00,NE,45,0.5,2.3,65,0.00,FEW,,0.07,WeatherDisplay:10.37,2013-01-18 04:56:00,